createdAt,value
2024-01-29T00:02:25.500Z,-3.60
2024-01-29T00:04:52.781Z,-3.60
2024-01-29T00:07:19.955Z,-3.50
2024-01-29T00:09:47.173Z,-3.50
2024-01-29T00:12:14.209Z,-3.60
2024-01-29T00:14:41.367Z,-3.60
2024-01-29T00:17:08.868Z,-3.70
2024-01-29T00:19:36.151Z,-3.70
2024-01-29T00:22:03.204Z,-3.70
2024-01-29T00:24:30.656Z,-3.70
2024-01-29T00:26:58.077Z,-3.70
2024-01-29T00:29:25.366Z,-3.70
2024-01-29T00:31:52.266Z,-3.80
2024-01-29T00:34:19.447Z,-3.80
2024-01-29T00:36:46.582Z,-3.80
2024-01-29T00:39:14.433Z,-3.90
2024-01-29T00:41:41.331Z,-3.80
2024-01-29T00:44:08.253Z,-3.70
2024-01-29T00:46:35.146Z,-3.80
2024-01-29T00:49:02.139Z,-3.80
2024-01-29T00:51:29.143Z,-3.80
2024-01-29T00:53:56.138Z,-3.90
2024-01-29T00:56:23.006Z,-3.90
2024-01-29T00:58:49.968Z,-3.90
2024-01-29T01:01:16.980Z,-3.90
2024-01-29T01:03:44.086Z,-3.90
2024-01-29T01:06:11.922Z,-3.90
2024-01-29T01:08:38.971Z,-3.90
2024-01-29T01:11:05.913Z,-3.90
2024-01-29T01:13:32.804Z,-3.90
2024-01-29T01:16:00.045Z,-4.00
2024-01-29T01:18:27.320Z,-4.00
2024-01-29T01:20:54.337Z,-4.00
2024-01-29T01:23:21.232Z,-4.00
2024-01-29T01:25:48.295Z,-4.10
2024-01-29T01:28:15.146Z,-4.20
2024-01-29T01:30:42.086Z,-4.30
2024-01-29T01:33:09.109Z,-4.30
2024-01-29T01:35:36.035Z,-4.30
2024-01-29T01:38:03.009Z,-4.30
2024-01-29T01:40:29.916Z,-4.30
2024-01-29T01:42:56.991Z,-4.30
2024-01-29T01:45:24.070Z,-4.40
2024-01-29T01:47:51.276Z,-4.40
2024-01-29T01:50:18.411Z,-4.30
2024-01-29T01:52:45.459Z,-4.40
2024-01-29T01:55:12.643Z,-4.40
2024-01-29T01:57:40.938Z,-4.30
2024-01-29T02:00:08.906Z,-4.30
2024-01-29T02:02:36.413Z,-4.30
2024-01-29T02:05:03.912Z,-4.30
2024-01-29T02:07:31.032Z,-4.30
2024-01-29T02:09:58.146Z,-4.40
2024-01-29T02:12:25.098Z,-4.40
2024-01-29T02:14:53.124Z,-4.50
2024-01-29T02:17:20.099Z,-4.50
2024-01-29T02:19:47.091Z,-4.50
2024-01-29T02:22:14.105Z,-4.50
2024-01-29T02:24:41.045Z,-4.50
2024-01-29T02:27:08.269Z,-4.40
2024-01-29T02:29:35.226Z,-4.50
2024-01-29T02:32:02.202Z,-4.50
2024-01-29T02:34:29.251Z,-4.50
2024-01-29T02:36:56.269Z,-4.50
2024-01-29T02:39:23.647Z,-4.50
2024-01-29T02:41:50.667Z,-4.40
2024-01-29T02:44:17.580Z,-4.40
2024-01-29T02:46:44.555Z,-4.40
2024-01-29T02:49:11.601Z,-4.40
2024-01-29T02:51:38.630Z,-4.50
2024-01-29T02:54:05.640Z,-4.50
2024-01-29T02:56:32.487Z,-4.50
2024-01-29T02:58:59.434Z,-4.60
2024-01-29T03:01:26.376Z,-4.60
2024-01-29T03:03:53.366Z,-4.60
2024-01-29T03:06:20.298Z,-4.70
2024-01-29T03:08:47.948Z,-4.70
2024-01-29T03:11:15.017Z,-4.70
2024-01-29T03:13:41.912Z,-4.80
2024-01-29T03:16:09.062Z,-4.70
2024-01-29T03:18:36.153Z,-4.80
2024-01-29T03:21:03.563Z,-4.80
2024-01-29T03:23:30.757Z,-4.80
2024-01-29T03:25:57.641Z,-4.80
2024-01-29T03:28:24.626Z,-4.80
2024-01-29T03:30:51.564Z,-4.80
2024-01-29T03:33:18.630Z,-4.80
2024-01-29T03:35:45.639Z,-4.80
2024-01-29T03:38:12.721Z,-4.80
2024-01-29T03:40:39.660Z,-4.90
2024-01-29T03:43:06.693Z,-4.90
2024-01-29T03:45:33.742Z,-4.90
2024-01-29T03:48:00.685Z,-5.00
2024-01-29T03:50:27.639Z,-5.00
2024-01-29T03:52:54.570Z,-5.00
2024-01-29T03:55:21.580Z,-4.90
2024-01-29T03:57:48.653Z,-4.90
2024-01-29T04:00:19.878Z,-4.90
2024-01-29T04:02:51.039Z,-5.00
2024-01-29T04:05:19.026Z,-4.90
2024-01-29T04:07:46.703Z,-5.00
2024-01-29T04:10:14.095Z,-5.00
2024-01-29T04:12:41.121Z,-5.00
2024-01-29T04:15:08.349Z,-5.00
2024-01-29T04:17:35.789Z,-5.00
2024-01-29T04:20:06.178Z,-5.00
2024-01-29T04:22:33.830Z,-5.00
2024-01-29T04:25:05.722Z,-5.10
2024-01-29T04:27:32.959Z,-5.10
2024-01-29T04:30:01.483Z,-5.10
2024-01-29T04:32:29.626Z,-5.00
2024-01-29T04:34:56.537Z,-5.00
2024-01-29T04:37:25.440Z,-5.10
2024-01-29T04:39:52.425Z,-5.10
2024-01-29T04:42:19.302Z,-5.10
2024-01-29T04:44:46.196Z,-5.10
2024-01-29T04:47:13.146Z,-5.20
2024-01-29T04:49:40.113Z,-5.10
2024-01-29T04:52:07.221Z,-5.20
2024-01-29T04:54:34.247Z,-5.20
2024-01-29T04:57:01.321Z,-5.20
2024-01-29T04:59:28.226Z,-5.30
2024-01-29T05:01:55.228Z,-5.20
2024-01-29T05:04:22.306Z,-5.20
2024-01-29T05:06:49.433Z,-5.20
2024-01-29T05:09:18.475Z,-5.20
2024-01-29T05:11:45.431Z,-5.20
2024-01-29T05:14:12.359Z,-5.00
2024-01-29T05:16:39.264Z,-5.20
2024-01-29T05:19:06.520Z,-5.30
2024-01-29T05:21:33.580Z,-5.30
2024-01-29T05:24:00.637Z,-5.30
2024-01-29T05:26:27.542Z,-5.30
2024-01-29T05:28:54.806Z,-5.30
2024-01-29T05:31:21.797Z,-5.30
2024-01-29T05:33:48.960Z,-5.30
2024-01-29T05:36:16.066Z,-5.30
2024-01-29T05:38:42.922Z,-5.30
2024-01-29T05:41:09.788Z,-5.30
2024-01-29T05:43:36.633Z,-5.30
2024-01-29T05:46:03.726Z,-5.40
2024-01-29T05:48:31.481Z,-5.40
2024-01-29T05:50:58.416Z,-5.50
2024-01-29T05:53:25.369Z,-5.50
2024-01-29T05:55:52.268Z,-5.50
2024-01-29T05:58:19.340Z,-5.50
2024-01-29T06:00:46.577Z,-5.50
2024-01-29T06:03:14.148Z,-5.50
2024-01-29T06:05:41.125Z,-5.60
2024-01-29T06:08:08.087Z,-5.50
2024-01-29T06:10:35.026Z,-5.60
2024-01-29T06:13:02.128Z,-5.50
2024-01-29T06:15:29.069Z,-5.60
2024-01-29T06:17:56.264Z,-5.60
2024-01-29T06:20:24.433Z,-5.60
2024-01-29T06:22:51.387Z,-5.70
2024-01-29T06:25:21.209Z,-5.70
2024-01-29T06:27:48.916Z,-5.70
2024-01-29T06:30:16.609Z,-5.70
2024-01-29T06:32:43.612Z,-5.70
2024-01-29T06:35:11.699Z,-5.60
2024-01-29T06:37:39.032Z,-5.70
2024-01-29T06:40:06.951Z,-5.70
2024-01-29T06:42:33.970Z,-5.60
2024-01-29T06:45:00.889Z,-5.60
2024-01-29T06:47:27.944Z,-5.60
2024-01-29T06:50:00.079Z,-5.60
2024-01-29T06:52:27.423Z,-5.40
2024-01-29T06:54:54.959Z,-5.50
2024-01-29T06:57:21.892Z,-5.60
2024-01-29T06:59:48.817Z,-5.70
2024-01-29T07:02:15.769Z,-5.70
2024-01-29T07:04:44.138Z,-5.70
2024-01-29T07:07:11.213Z,-5.80
2024-01-29T07:09:38.342Z,-5.80
2024-01-29T07:12:06.633Z,-5.80
2024-01-29T07:14:33.701Z,-5.70
2024-01-29T07:17:00.653Z,-5.70
2024-01-29T07:19:29.291Z,-5.70
2024-01-29T07:21:56.465Z,-5.70
2024-01-29T07:24:23.782Z,-5.70
2024-01-29T07:26:50.753Z,-5.60
2024-01-29T07:29:17.767Z,-5.50
2024-01-29T07:31:44.714Z,-5.50
2024-01-29T07:34:12.150Z,-5.50
2024-01-29T07:36:42.031Z,-5.50
2024-01-29T07:39:11.152Z,-5.50
2024-01-29T07:41:41.893Z,-5.40
2024-01-29T07:44:09.113Z,-5.40
2024-01-29T07:46:36.012Z,-5.30
2024-01-29T07:49:04.769Z,-5.20
2024-01-29T07:51:32.027Z,-5.20
2024-01-29T07:54:00.255Z,-5.10
2024-01-29T07:56:27.286Z,-5.10
2024-01-29T07:58:54.224Z,-5.10
2024-01-29T08:01:21.315Z,-5.00
2024-01-29T08:03:48.464Z,-4.90
2024-01-29T08:06:15.505Z,-4.80
2024-01-29T08:08:42.655Z,-4.80
2024-01-29T08:11:12.603Z,-4.60
2024-01-29T08:13:40.014Z,-4.60
2024-01-29T08:16:07.144Z,-4.50
2024-01-29T08:18:34.419Z,-4.50
2024-01-29T08:21:01.606Z,-4.50
2024-01-29T08:23:28.569Z,-4.30
2024-01-29T08:25:55.542Z,-4.20
2024-01-29T08:28:22.689Z,-4.20
2024-01-29T08:30:49.612Z,-4.10
2024-01-29T08:33:16.620Z,-4.00
2024-01-29T08:35:43.659Z,-3.90
2024-01-29T08:40:39.177Z,-3.60
2024-01-29T08:43:06.270Z,-3.50
2024-01-29T08:45:33.381Z,-3.40
2024-01-29T08:48:00.343Z,-3.30
2024-01-29T08:50:27.377Z,-3.20
2024-01-29T08:52:54.251Z,-3.00
2024-01-29T08:55:21.171Z,-3.00
2024-01-29T08:57:48.085Z,-2.90
2024-01-29T09:00:16.069Z,-2.80
2024-01-29T09:02:43.357Z,-2.60
2024-01-29T09:05:10.285Z,-2.50
2024-01-29T09:07:37.272Z,-2.40
2024-01-29T09:10:04.589Z,-2.20
2024-01-29T09:12:31.611Z,-2.10
2024-01-29T09:14:58.904Z,-2.00
2024-01-29T09:17:26.014Z,-1.80
2024-01-29T09:19:53.178Z,-1.60
2024-01-29T09:22:20.236Z,-1.50
2024-01-29T09:24:48.097Z,-1.30
2024-01-29T09:27:15.126Z,-1.10
2024-01-29T09:29:42.119Z,-1.00
2024-01-29T09:32:09.442Z,-0.80
2024-01-29T09:34:36.506Z,-0.50
2024-01-29T09:37:03.644Z,-0.40
2024-01-29T09:39:30.650Z,-0.10
2024-01-29T09:42:05.682Z,0.00
2024-01-29T09:44:41.638Z,0.20
2024-01-29T09:47:09.166Z,0.40
2024-01-29T09:49:36.780Z,0.60
2024-01-29T09:52:07.888Z,0.90
2024-01-29T09:54:35.353Z,1.10
2024-01-29T09:57:02.381Z,1.30
2024-01-29T09:59:29.264Z,1.40
2024-01-29T10:01:58.386Z,1.60
2024-01-29T10:04:25.614Z,1.80
2024-01-29T10:06:53.100Z,2.00
2024-01-29T10:09:20.519Z,2.10
2024-01-29T10:11:49.545Z,2.40
2024-01-29T10:14:17.229Z,2.50
2024-01-29T10:16:44.143Z,2.70
2024-01-29T10:19:13.889Z,2.90
2024-01-29T10:21:44.105Z,3.10
2024-01-29T10:24:16.848Z,3.30
2024-01-29T10:26:45.675Z,3.40
2024-01-29T10:29:13.392Z,3.50
2024-01-29T10:31:41.912Z,3.70
2024-01-29T10:34:09.256Z,3.90
2024-01-29T10:36:40.072Z,4.10
2024-01-29T10:39:09.243Z,4.40
2024-01-29T10:41:37.170Z,4.50
2024-01-29T10:44:05.554Z,4.70
2024-01-29T10:46:38.046Z,5.00
2024-01-29T10:49:05.192Z,5.10
2024-01-29T10:51:35.575Z,5.30
2024-01-29T10:54:03.292Z,5.50
2024-01-29T10:56:31.706Z,5.80
2024-01-29T10:59:03.175Z,6.10
2024-01-29T11:01:32.378Z,6.30
2024-01-29T11:04:01.905Z,6.70
2024-01-29T11:06:54.408Z,6.90
2024-01-29T11:09:25.512Z,7.30
2024-01-29T11:11:55.863Z,7.50
2024-01-29T11:14:23.047Z,7.80
2024-01-29T11:16:53.780Z,8.00
2024-01-29T11:19:25.443Z,8.20
2024-01-29T11:21:52.593Z,8.40
2024-01-29T11:24:23.127Z,8.70
2024-01-29T11:26:52.161Z,8.90
2024-01-29T11:29:20.715Z,9.20
2024-01-29T11:31:49.436Z,9.40
2024-01-29T11:34:16.445Z,9.70
2024-01-29T11:36:43.899Z,9.90
2024-01-29T11:39:11.004Z,10.20
2024-01-29T11:41:38.953Z,10.50
2024-01-29T11:44:05.967Z,10.80
2024-01-29T11:46:32.917Z,11.10
2024-01-29T11:49:00.474Z,11.30
2024-01-29T11:51:28.845Z,11.60
2024-01-29T11:53:56.175Z,11.90
2024-01-29T11:56:23.081Z,12.10
2024-01-29T11:59:03.657Z,12.30
2024-01-29T12:01:32.978Z,12.50
2024-01-29T12:04:00.782Z,12.60
2024-01-29T12:06:28.188Z,12.70
2024-01-29T12:08:55.118Z,12.90
2024-01-29T12:11:23.056Z,13.00
2024-01-29T12:13:50.249Z,13.30
2024-01-29T12:16:18.118Z,13.40
2024-01-29T12:18:45.483Z,13.60
2024-01-29T12:21:13.178Z,13.80
2024-01-29T12:23:40.137Z,14.00
2024-01-29T12:26:07.033Z,14.10
2024-01-29T12:28:34.641Z,14.20
2024-01-29T12:31:07.216Z,14.30
2024-01-29T12:33:37.247Z,14.50
2024-01-29T12:36:15.640Z,14.80
2024-01-29T12:38:44.427Z,14.80
2024-01-29T12:41:11.757Z,14.80
2024-01-29T12:43:40.092Z,15.00
2024-01-29T12:46:11.935Z,15.20
2024-01-29T12:48:39.199Z,15.30
2024-01-29T12:51:06.566Z,15.10
2024-01-29T12:53:33.573Z,15.20
2024-01-29T12:56:00.440Z,15.20
2024-01-29T12:58:27.585Z,15.10
2024-01-29T13:00:54.578Z,15.30
2024-01-29T13:03:21.595Z,15.20
2024-01-29T13:05:51.848Z,15.20
2024-01-29T13:08:18.736Z,15.30
2024-01-29T13:10:45.641Z,15.30
2024-01-29T13:13:12.738Z,15.20
2024-01-29T13:15:41.492Z,15.40
2024-01-29T13:18:21.448Z,15.40
2024-01-29T13:20:48.501Z,15.20
2024-01-29T13:23:15.439Z,15.20
2024-01-29T13:25:42.345Z,15.30
2024-01-29T13:28:10.071Z,15.20
2024-01-29T13:30:38.673Z,15.00
2024-01-29T13:33:07.231Z,14.90
2024-01-29T13:35:34.166Z,15.00
2024-01-29T13:38:01.051Z,14.80
2024-01-29T13:40:27.992Z,14.80
2024-01-29T13:42:56.972Z,14.70
2024-01-29T13:45:24.173Z,14.50
2024-01-29T13:47:53.578Z,14.40
2024-01-29T13:50:21.021Z,14.30
2024-01-29T13:52:48.181Z,14.40
2024-01-29T13:55:15.640Z,14.40
2024-01-29T13:57:42.830Z,14.50
2024-01-29T14:00:11.834Z,14.70
2024-01-29T14:02:39.086Z,14.70
2024-01-29T14:05:06.599Z,14.70
2024-01-29T14:07:33.769Z,14.60
2024-01-29T14:10:04.017Z,14.60
2024-01-29T14:12:31.075Z,14.60
2024-01-29T14:15:03.147Z,14.30
2024-01-29T14:17:31.942Z,14.20
2024-01-29T14:20:00.648Z,14.00
2024-01-29T14:22:28.320Z,14.10
2024-01-29T14:24:55.377Z,13.90
2024-01-29T14:27:22.312Z,13.90
2024-01-29T14:29:50.340Z,13.90
2024-01-29T14:32:17.480Z,14.00
2024-01-29T14:34:44.983Z,13.90
2024-01-29T14:37:13.149Z,13.80
2024-01-29T14:39:40.224Z,13.80
2024-01-29T14:42:07.759Z,13.70
2024-01-29T14:44:35.582Z,13.60
2024-01-29T14:47:03.100Z,13.50
2024-01-29T14:49:30.482Z,13.50
2024-01-29T14:51:57.968Z,13.60
2024-01-29T14:54:26.042Z,13.40
2024-01-29T14:56:53.827Z,13.40
2024-01-29T14:59:21.359Z,13.40
2024-01-29T15:01:48.491Z,13.20
2024-01-29T15:04:15.985Z,13.20
2024-01-29T15:06:43.517Z,13.00
2024-01-29T15:09:11.945Z,12.90
2024-01-29T15:11:39.150Z,12.80
2024-01-29T15:14:06.096Z,12.60
2024-01-29T15:16:33.034Z,12.50
2024-01-29T15:19:00.093Z,12.30
2024-01-29T15:21:27.417Z,12.20
2024-01-29T15:23:54.950Z,12.00
2024-01-29T15:26:24.360Z,11.90
2024-01-29T15:28:51.556Z,11.80
2024-01-29T15:31:19.673Z,11.70
2024-01-29T15:33:50.398Z,11.60
2024-01-29T15:36:19.773Z,11.50
2024-01-29T15:38:46.800Z,11.20
2024-01-29T15:41:17.915Z,11.10
2024-01-29T15:43:44.852Z,11.10
2024-01-29T15:46:12.106Z,10.90
2024-01-29T15:48:39.207Z,10.70
2024-01-29T15:51:06.430Z,10.60
2024-01-29T15:53:33.332Z,10.40
2024-01-29T15:56:00.286Z,10.30
2024-01-29T15:58:27.234Z,10.10
2024-01-29T16:00:54.356Z,10.00
2024-01-29T16:03:21.253Z,9.80
2024-01-29T16:05:48.148Z,9.70
2024-01-29T16:08:16.371Z,9.50
2024-01-29T16:10:44.291Z,9.40
2024-01-29T16:13:11.440Z,9.30
2024-01-29T16:15:38.449Z,9.10
2024-01-29T16:18:08.197Z,9.00
2024-01-29T16:20:35.829Z,8.80
2024-01-29T16:23:06.056Z,8.60
2024-01-29T16:25:33.227Z,8.40
2024-01-29T16:28:00.572Z,8.30
2024-01-29T16:30:27.575Z,8.10
2024-01-29T16:32:55.539Z,7.90
2024-01-29T16:35:22.716Z,7.70
2024-01-29T16:37:50.907Z,7.40
2024-01-29T16:40:17.881Z,7.20
2024-01-29T16:42:44.941Z,7.00
2024-01-29T16:45:11.850Z,6.70
2024-01-29T16:47:41.578Z,6.30
2024-01-29T16:50:08.940Z,6.00
2024-01-29T16:52:36.124Z,5.70
2024-01-29T16:55:03.222Z,5.40
2024-01-29T16:57:30.158Z,5.30
2024-01-29T16:59:57.001Z,5.20
2024-01-29T17:02:24.995Z,5.00
2024-01-29T17:04:52.041Z,4.90
2024-01-29T17:07:19.029Z,4.80
2024-01-29T17:09:45.979Z,4.60
2024-01-29T17:12:12.828Z,4.50
2024-01-29T17:14:39.708Z,4.40
2024-01-29T17:17:10.268Z,4.40
2024-01-29T17:19:38.331Z,4.30
2024-01-29T17:22:05.290Z,4.30
2024-01-29T17:24:32.348Z,4.20
2024-01-29T17:26:59.534Z,4.20
2024-01-29T17:29:26.729Z,4.10
2024-01-29T17:31:53.812Z,4.00
2024-01-29T17:34:20.795Z,3.80
2024-01-29T17:36:49.820Z,3.70
2024-01-29T17:39:16.740Z,3.60
2024-01-29T17:41:43.868Z,3.40
2024-01-29T17:44:10.813Z,3.20
2024-01-29T17:46:37.683Z,3.10
2024-01-29T17:49:04.601Z,3.10
2024-01-29T17:51:31.575Z,3.10
2024-01-29T17:53:58.525Z,3.00
2024-01-29T17:56:25.421Z,2.80
2024-01-29T17:58:52.308Z,2.70
2024-01-29T18:01:19.327Z,2.60
2024-01-29T18:03:46.369Z,2.50
2024-01-29T18:06:13.334Z,2.50
2024-01-29T18:08:40.705Z,2.40
2024-01-29T18:11:07.674Z,2.40
2024-01-29T18:13:34.553Z,2.40
2024-01-29T18:16:01.606Z,2.30
2024-01-29T18:18:28.627Z,2.20
2024-01-29T18:20:55.546Z,2.20
2024-01-29T18:23:22.496Z,2.20
2024-01-29T18:25:49.322Z,2.00
2024-01-29T18:28:16.348Z,1.80
2024-01-29T18:30:43.344Z,1.70
2024-01-29T18:33:10.242Z,1.60
2024-01-29T18:35:37.231Z,1.50
2024-01-29T18:38:04.352Z,1.50
2024-01-29T18:40:35.616Z,1.20
2024-01-29T18:43:02.526Z,1.00
2024-01-29T18:45:29.716Z,0.90
2024-01-29T18:47:56.735Z,0.90
2024-01-29T18:50:23.847Z,0.90
2024-01-29T18:52:50.901Z,0.90
2024-01-29T18:55:18.007Z,0.90
2024-01-29T18:57:45.102Z,0.90
2024-01-29T19:00:12.589Z,0.90
2024-01-29T19:02:42.728Z,0.80
2024-01-29T19:05:13.189Z,0.70
2024-01-29T19:07:40.196Z,0.70
2024-01-29T19:10:07.943Z,0.70
2024-01-29T19:12:37.164Z,0.70
2024-01-29T19:15:05.562Z,0.60
2024-01-29T19:17:32.820Z,0.40
2024-01-29T19:20:00.878Z,0.20
2024-01-29T19:22:28.223Z,0.30
2024-01-29T19:24:55.256Z,0.30
2024-01-29T19:27:22.315Z,0.40
2024-01-29T19:29:49.311Z,0.30
2024-01-29T19:32:17.272Z,0.30
2024-01-29T19:34:44.272Z,0.20
2024-01-29T19:37:11.531Z,0.20
2024-01-29T19:39:40.231Z,0.10
2024-01-29T19:42:07.425Z,-0.10
2024-01-29T19:44:34.576Z,-0.20
2024-01-29T19:47:02.071Z,-0.10
2024-01-29T19:49:29.301Z,-0.10
2024-01-29T19:51:56.441Z,-0.10
2024-01-29T19:54:23.491Z,-0.10
2024-01-29T19:56:50.464Z,-0.10
2024-01-29T19:59:19.470Z,-0.10
2024-01-29T20:01:47.059Z,-0.20
2024-01-29T20:04:14.434Z,-0.40
2024-01-29T20:06:41.551Z,-0.50
2024-01-29T20:09:08.577Z,-0.60
2024-01-29T20:11:35.561Z,-0.70
2024-01-29T20:14:02.748Z,-0.80
2024-01-29T20:16:29.674Z,-0.70
2024-01-29T20:18:57.368Z,-0.60
2024-01-29T20:21:24.410Z,-0.60
2024-01-29T20:23:54.995Z,-0.60
2024-01-29T20:26:23.477Z,-0.70
2024-01-29T20:28:50.565Z,-0.70
2024-01-29T20:31:26.480Z,-0.90
2024-01-29T20:33:56.551Z,-1.10
2024-01-29T20:36:24.931Z,-1.30
2024-01-29T20:38:53.651Z,-1.30
2024-01-29T20:41:37.248Z,-1.30
2024-01-29T20:44:09.810Z,-1.20
2024-01-29T20:46:43.874Z,-1.20
2024-01-29T20:49:11.388Z,-1.10
2024-01-29T20:51:42.058Z,-1.10
2024-01-29T20:54:20.778Z,-1.10
2024-01-29T20:56:47.632Z,-1.10
2024-01-29T20:59:14.471Z,-1.10
2024-01-29T21:01:47.258Z,-1.10
2024-01-29T21:04:17.724Z,-1.10
2024-01-29T21:06:45.019Z,-1.10
2024-01-29T21:09:13.399Z,-1.10
2024-01-29T21:11:40.354Z,-1.20
2024-01-29T21:14:12.777Z,-1.10
2024-01-29T21:16:39.679Z,-1.20
2024-01-29T21:19:06.747Z,-1.30
2024-01-29T21:21:34.669Z,-1.30
2024-01-29T21:24:02.181Z,-1.30
2024-01-29T21:26:29.188Z,-1.40
2024-01-29T21:28:58.190Z,-1.60
2024-01-29T21:31:25.325Z,-1.60
2024-01-29T21:33:52.497Z,-1.70
2024-01-29T21:36:20.440Z,-1.70
2024-01-29T21:38:47.341Z,-1.70
2024-01-29T21:41:14.349Z,-1.60
2024-01-29T21:43:41.223Z,-1.60
2024-01-29T21:46:08.260Z,-1.60
2024-01-29T21:48:35.266Z,-1.70
2024-01-29T21:51:02.503Z,-1.70
2024-01-29T21:53:29.447Z,-1.70
2024-01-29T21:55:56.688Z,-1.80
2024-01-29T21:58:25.266Z,-1.80
2024-01-29T22:00:52.538Z,-1.90
2024-01-29T22:03:20.437Z,-1.80
2024-01-29T22:05:47.392Z,-1.90
2024-01-29T22:08:16.317Z,-1.80
2024-01-29T22:10:43.327Z,-1.80
2024-01-29T22:13:10.198Z,-1.90
2024-01-29T22:15:37.098Z,-1.90
2024-01-29T22:18:04.171Z,-1.90
2024-01-29T22:20:31.016Z,-1.90
2024-01-29T22:22:57.867Z,-1.90
2024-01-29T22:25:24.835Z,-1.80
2024-01-29T22:27:51.715Z,-1.90
2024-01-29T22:30:18.784Z,-1.90
2024-01-29T22:32:45.714Z,-1.90
2024-01-29T22:35:12.793Z,-1.90
2024-01-29T22:37:39.787Z,-1.90
2024-01-29T22:40:08.354Z,-1.90
2024-01-29T22:42:35.401Z,-2.00
2024-01-29T22:45:02.264Z,-2.00
2024-01-29T22:47:30.822Z,-2.00
2024-01-29T22:49:57.864Z,-2.10
2024-01-29T22:52:25.163Z,-2.10
2024-01-29T22:54:52.168Z,-2.20
2024-01-29T22:57:19.506Z,-2.30
2024-01-29T22:59:46.376Z,-2.20
2024-01-29T23:02:14.603Z,-2.20
2024-01-29T23:04:43.000Z,-2.30
2024-01-29T23:07:09.987Z,-2.30
2024-01-29T23:09:37.026Z,-2.30
2024-01-29T23:12:04.144Z,-2.30
2024-01-29T23:14:31.006Z,-2.40
2024-01-29T23:16:57.970Z,-2.30
2024-01-29T23:19:24.966Z,-2.40
2024-01-29T23:21:52.167Z,-2.40
2024-01-29T23:24:19.227Z,-2.50
2024-01-29T23:26:46.715Z,-2.50
2024-01-29T23:29:13.562Z,-2.60
2024-01-29T23:31:40.413Z,-2.60
2024-01-29T23:34:07.580Z,-2.50
2024-01-29T23:36:34.533Z,-2.60
2024-01-29T23:39:03.631Z,-2.60
2024-01-29T23:41:31.862Z,-2.60
2024-01-29T23:43:58.703Z,-2.60
2024-01-29T23:46:25.571Z,-2.70
2024-01-29T23:48:52.509Z,-2.70
2024-01-29T23:51:19.437Z,-2.80
2024-01-29T23:53:46.381Z,-2.80
2024-01-29T23:56:13.312Z,-2.80
2024-01-29T23:58:41.028Z,-2.80
